sensor_id;sensor_type;location;lat;lon;timestamp;pressure;altitude;pressure_sealevel;temperature;humidity
54994;BME280;40891;47.242;8.648;2023-02-12T00:01:18;98226.28;;;1.51;89.86
54994;BME280;40891;47.242;8.648;2023-02-12T00:03:44;98228.47;;;1.46;89.77
54994;BME280;40891;47.242;8.648;2023-02-12T00:06:10;98229.38;;;1.50;90.20
54994;BME280;40891;47.242;8.648;2023-02-12T00:08:36;98224.81;;;1.54;89.03
54994;BME280;40891;47.242;8.648;2023-02-12T00:11:10;98225.28;;;1.44;88.35
54994;BME280;40891;47.242;8.648;2023-02-12T00:13:36;98215.69;;;1.37;90.04
54994;BME280;40891;47.242;8.648;2023-02-12T00:16:09;98218.72;;;1.32;90.77
54994;BME280;40891;47.242;8.648;2023-02-12T00:18:35;98224.19;;;1.32;91.00
54994;BME280;40891;47.242;8.648;2023-02-12T00:21:01;98212.97;;;1.37;91.82
54994;BME280;40891;47.242;8.648;2023-02-12T00:23:26;98213.75;;;1.38;91.68
54994;BME280;40891;47.242;8.648;2023-02-12T00:25:52;98210.22;;;1.37;92.46
54994;BME280;40891;47.242;8.648;2023-02-12T00:28:17;98210.59;;;1.36;93.45
54994;BME280;40891;47.242;8.648;2023-02-12T00:30:42;98206.16;;;1.31;93.75
54994;BME280;40891;47.242;8.648;2023-02-12T00:33:08;98209.13;;;1.26;93.64
54994;BME280;40891;47.242;8.648;2023-02-12T00:35:33;98209.03;;;1.23;93.80
54994;BME280;40891;47.242;8.648;2023-02-12T00:37:58;98198.78;;;1.20;94.33
54994;BME280;40891;47.242;8.648;2023-02-12T00:40:24;98199.38;;;1.13;93.54
54994;BME280;40891;47.242;8.648;2023-02-12T00:42:49;98209.31;;;1.06;92.89
54994;BME280;40891;47.242;8.648;2023-02-12T00:45:14;98205.31;;;1.03;91.70
54994;BME280;40891;47.242;8.648;2023-02-12T00:47:40;98209.41;;;0.97;89.98
54994;BME280;40891;47.242;8.648;2023-02-12T00:50:06;98215.25;;;0.96;88.36
54994;BME280;40891;47.242;8.648;2023-02-12T00:52:31;98229.38;;;0.98;87.64
54994;BME280;40891;47.242;8.648;2023-02-12T00:54:56;98225.84;;;0.97;87.26
54994;BME280;40891;47.242;8.648;2023-02-12T00:57:22;98229.75;;;0.96;87.45
54994;BME280;40891;47.242;8.648;2023-02-12T00:59:47;98223.81;;;0.94;87.54
54994;BME280;40891;47.242;8.648;2023-02-12T01:02:12;98234.06;;;0.97;87.23
54994;BME280;40891;47.242;8.648;2023-02-12T01:04:38;98233.72;;;0.99;86.96
54994;BME280;40891;47.242;8.648;2023-02-12T01:07:03;98228.34;;;1.02;87.88
54994;BME280;40891;47.242;8.648;2023-02-12T01:09:28;98231.91;;;1.03;89.88
54994;BME280;40891;47.242;8.648;2023-02-12T01:11:53;98228.59;;;0.97;90.41
54994;BME280;40891;47.242;8.648;2023-02-12T01:14:19;98225.63;;;1.02;92.31
54994;BME280;40891;47.242;8.648;2023-02-12T01:16:44;98224.13;;;1.05;93.18
54994;BME280;40891;47.242;8.648;2023-02-12T01:19:10;98219.91;;;1.07;94.78
54994;BME280;40891;47.242;8.648;2023-02-12T01:21:36;98230.84;;;1.07;96.03
54994;BME280;40891;47.242;8.648;2023-02-12T01:24:01;98230.41;;;1.05;95.87
54994;BME280;40891;47.242;8.648;2023-02-12T01:26:28;98224.47;;;1.03;95.37
54994;BME280;40891;47.242;8.648;2023-02-12T01:28:57;98224.59;;;0.95;95.69
54994;BME280;40891;47.242;8.648;2023-02-12T01:31:25;98220.50;;;0.89;95.98
54994;BME280;40891;47.242;8.648;2023-02-12T01:33:53;98216.63;;;0.90;96.08
54994;BME280;40891;47.242;8.648;2023-02-12T01:36:18;98214.13;;;0.85;95.89
54994;BME280;40891;47.242;8.648;2023-02-12T01:38:44;98211.28;;;0.81;96.01
54994;BME280;40891;47.242;8.648;2023-02-12T01:41:15;98205.34;;;0.79;95.41
54994;BME280;40891;47.242;8.648;2023-02-12T01:43:41;98195.31;;;0.71;94.30
54994;BME280;40891;47.242;8.648;2023-02-12T01:46:10;98202.84;;;0.74;93.34
54994;BME280;40891;47.242;8.648;2023-02-12T01:48:38;98201.13;;;0.69;93.51
54994;BME280;40891;47.242;8.648;2023-02-12T01:51:06;98208.22;;;0.71;92.13
54994;BME280;40891;47.242;8.648;2023-02-12T01:53:36;98211.72;;;0.71;90.66
54994;BME280;40891;47.242;8.648;2023-02-12T01:56:02;98215.06;;;0.64;91.13
54994;BME280;40891;47.242;8.648;2023-02-12T01:58:33;98223.16;;;0.61;89.09
54994;BME280;40891;47.242;8.648;2023-02-12T02:01:02;98225.31;;;0.55;89.00
54994;BME280;40891;47.242;8.648;2023-02-12T02:03:28;98222.47;;;0.52;88.14
54994;BME280;40891;47.242;8.648;2023-02-12T02:06:06;98223.97;;;0.49;87.70
54994;BME280;40891;47.242;8.648;2023-02-12T02:08:33;98227.72;;;0.45;87.70
54994;BME280;40891;47.242;8.648;2023-02-12T02:10:59;98225.44;;;0.47;85.56
54994;BME280;40891;47.242;8.648;2023-02-12T02:13:24;98212.53;;;0.47;85.75
54994;BME280;40891;47.242;8.648;2023-02-12T02:16:23;98205.84;;;0.45;85.88
54994;BME280;40891;47.242;8.648;2023-02-12T02:19:01;98201.72;;;0.51;86.46
54994;BME280;40891;47.242;8.648;2023-02-12T02:21:49;98198.84;;;0.47;86.34
54994;BME280;40891;47.242;8.648;2023-02-12T02:24:46;98191.44;;;0.48;87.43
54994;BME280;40891;47.242;8.648;2023-02-12T02:27:17;98189.66;;;0.52;88.86
54994;BME280;40891;47.242;8.648;2023-02-12T02:40:21;98188.03;;;0.39;86.46
54994;BME280;40891;47.242;8.648;2023-02-12T02:43:14;98189.53;;;0.36;85.46
54994;BME280;40891;47.242;8.648;2023-02-12T02:45:42;98188.63;;;0.32;85.84
54994;BME280;40891;47.242;8.648;2023-02-12T02:48:18;98196.81;;;0.32;85.85
54994;BME280;40891;47.242;8.648;2023-02-12T02:50:49;98198.28;;;0.30;85.64
54994;BME280;40891;47.242;8.648;2023-02-12T02:53:25;98188.97;;;0.31;86.39
54994;BME280;40891;47.242;8.648;2023-02-12T02:55:54;98191.81;;;0.34;85.26
54994;BME280;40891;47.242;8.648;2023-02-12T02:58:34;98182.91;;;0.37;85.28
54994;BME280;40891;47.242;8.648;2023-02-12T03:01:05;98193.88;;;0.37;86.50
54994;BME280;40891;47.242;8.648;2023-02-12T03:03:37;98187.94;;;0.35;86.55
54994;BME280;40891;47.242;8.648;2023-02-12T03:06:54;98192.94;;;0.33;86.88
54994;BME280;40891;47.242;8.648;2023-02-12T03:09:10;98186.56;;;0.29;88.81
54994;BME280;40891;47.242;8.648;2023-02-12T03:11:37;98188.47;;;0.29;89.28
54994;BME280;40891;47.242;8.648;2023-02-12T03:14:11;98188.84;;;0.27;90.62
54994;BME280;40891;47.242;8.648;2023-02-12T03:17:02;98185.75;;;0.29;90.64
54994;BME280;40891;47.242;8.648;2023-02-12T03:19:33;98188.03;;;0.27;91.43
54994;BME280;40891;47.242;8.648;2023-02-12T03:22:04;98184.84;;;0.25;92.62
54994;BME280;40891;47.242;8.648;2023-02-12T03:25:19;98181.66;;;0.23;93.60
54994;BME280;40891;47.242;8.648;2023-02-12T03:27:28;98181.66;;;0.23;95.49
54994;BME280;40891;47.242;8.648;2023-02-12T03:29:55;98187.94;;;0.23;97.04
54994;BME280;40891;47.242;8.648;2023-02-12T03:37:52;98196.56;;;0.13;98.00
54994;BME280;40891;47.242;8.648;2023-02-12T03:49:00;98180.97;;;0.02;96.34
54994;BME280;40891;47.242;8.648;2023-02-12T03:51:38;98186.63;;;-0.04;94.37
54994;BME280;40891;47.242;8.648;2023-02-12T03:54:07;98181.84;;;-0.07;92.61
54994;BME280;40891;47.242;8.648;2023-02-12T03:56:37;98172.72;;;-0.11;92.22
54994;BME280;40891;47.242;8.648;2023-02-12T03:59:05;98184.34;;;-0.14;91.45
54994;BME280;40891;47.242;8.648;2023-02-12T04:01:32;98187.06;;;-0.14;90.84
54994;BME280;40891;47.242;8.648;2023-02-12T04:03:58;98194.81;;;-0.16;90.43
54994;BME280;40891;47.242;8.648;2023-02-12T04:06:27;98185.03;;;-0.17;90.90
54994;BME280;40891;47.242;8.648;2023-02-12T04:08:58;98184.56;;;-0.07;92.90
54994;BME280;40891;47.242;8.648;2023-02-12T04:14:27;98186.78;;;0.00;94.63
54994;BME280;40891;47.242;8.648;2023-02-12T04:22:17;98193.00;;;0.00;96.06
54994;BME280;40891;47.242;8.648;2023-02-12T04:27:59;98208.28;;;0.02;97.56
54994;BME280;40891;47.242;8.648;2023-02-12T04:30:37;98207.50;;;0.01;98.28
54994;BME280;40891;47.242;8.648;2023-02-12T04:33:09;98209.41;;;0.00;98.47
54994;BME280;40891;47.242;8.648;2023-02-12T04:38:28;98212.84;;;-0.03;98.41
54994;BME280;40891;47.242;8.648;2023-02-12T04:40:55;98203.50;;;-0.02;99.08
54994;BME280;40891;47.242;8.648;2023-02-12T04:43:33;98201.91;;;-0.03;98.80
54994;BME280;40891;47.242;8.648;2023-02-12T04:46:06;98213.63;;;-0.02;99.23
54994;BME280;40891;47.242;8.648;2023-02-12T04:48:31;98211.25;;;-0.04;99.20
54994;BME280;40891;47.242;8.648;2023-02-12T04:50:59;98205.44;;;-0.02;100.00
54994;BME280;40891;47.242;8.648;2023-02-12T04:53:24;98205.09;;;-0.01;99.60
54994;BME280;40891;47.242;8.648;2023-02-12T04:55:50;98214.44;;;-0.02;99.53
54994;BME280;40891;47.242;8.648;2023-02-12T04:58:15;98206.91;;;-0.05;100.00
54994;BME280;40891;47.242;8.648;2023-02-12T05:00:41;98217.38;;;-0.07;99.93
54994;BME280;40891;47.242;8.648;2023-02-12T05:03:06;98211.44;;;-0.09;100.00
54994;BME280;40891;47.242;8.648;2023-02-12T05:05:32;98212.59;;;-0.10;100.00
54994;BME280;40891;47.242;8.648;2023-02-12T05:07:57;98219.06;;;-0.14;100.00
54994;BME280;40891;47.242;8.648;2023-02-12T05:10:23;98215.19;;;-0.13;99.82
54994;BME280;40891;47.242;8.648;2023-02-12T05:12:51;98217.13;;;-0.14;99.99
54994;BME280;40891;47.242;8.648;2023-02-12T05:15:16;98227.94;;;-0.17;99.77
54994;BME280;40891;47.242;8.648;2023-02-12T05:17:41;98226.34;;;-0.18;100.00
54994;BME280;40891;47.242;8.648;2023-02-12T05:20:07;98223.16;;;-0.20;100.00
54994;BME280;40891;47.242;8.648;2023-02-12T05:22:32;98227.00;;;-0.21;100.00
54994;BME280;40891;47.242;8.648;2023-02-12T05:24:58;98218.81;;;-0.21;100.00
54994;BME280;40891;47.242;8.648;2023-02-12T05:27:23;98225.09;;;-0.21;100.00
54994;BME280;40891;47.242;8.648;2023-02-12T05:29:48;98225.53;;;-0.19;100.00
54994;BME280;40891;47.242;8.648;2023-02-12T05:32:14;98220.88;;;-0.18;100.00
54994;BME280;40891;47.242;8.648;2023-02-12T05:34:39;98222.69;;;-0.22;99.89
54994;BME280;40891;47.242;8.648;2023-02-12T05:37:04;98219.97;;;-0.22;99.86
54994;BME280;40891;47.242;8.648;2023-02-12T05:39:30;98219.16;;;-0.23;99.80
54994;BME280;40891;47.242;8.648;2023-02-12T05:41:55;98219.81;;;-0.26;100.00
54994;BME280;40891;47.242;8.648;2023-02-12T05:44:21;98229.19;;;-0.27;100.00
54994;BME280;40891;47.242;8.648;2023-02-12T05:46:46;98223.72;;;-0.27;100.00
54994;BME280;40891;47.242;8.648;2023-02-12T05:49:12;98211.63;;;-0.26;100.00
54994;BME280;40891;47.242;8.648;2023-02-12T05:51:37;98211.06;;;-0.31;100.00
54994;BME280;40891;47.242;8.648;2023-02-12T05:54:04;98220.28;;;-0.36;100.00
54994;BME280;40891;47.242;8.648;2023-02-12T05:56:33;98215.00;;;-0.41;100.00
54994;BME280;40891;47.242;8.648;2023-02-12T05:59:05;98215.81;;;-0.40;100.00
54994;BME280;40891;47.242;8.648;2023-02-12T06:01:37;98220.47;;;-0.41;100.00
54994;BME280;40891;47.242;8.648;2023-02-12T06:04:05;98214.31;;;-0.38;100.00
54994;BME280;40891;47.242;8.648;2023-02-12T06:06:31;98214.66;;;-0.39;100.00
54994;BME280;40891;47.242;8.648;2023-02-12T06:08:57;98207.72;;;-0.37;100.00
54994;BME280;40891;47.242;8.648;2023-02-12T06:11:23;98210.47;;;-0.37;99.67
54994;BME280;40891;47.242;8.648;2023-02-12T06:13:49;98207.72;;;-0.37;100.00
54994;BME280;40891;47.242;8.648;2023-02-12T06:16:27;98202.72;;;-0.35;99.62
54994;BME280;40891;47.242;8.648;2023-02-12T06:18:54;98210.06;;;-0.27;99.54
54994;BME280;40891;47.242;8.648;2023-02-12T06:21:22;98201.41;;;-0.29;99.23
54994;BME280;40891;47.242;8.648;2023-02-12T06:23:48;98203.31;;;-0.29;99.52
54994;BME280;40891;47.242;8.648;2023-02-12T06:26:14;98210.06;;;-0.27;99.51
54994;BME280;40891;47.242;8.648;2023-02-12T06:28:39;98205.72;;;-0.28;99.45
54994;BME280;40891;47.242;8.648;2023-02-12T06:31:16;98202.97;;;-0.28;99.32
54994;BME280;40891;47.242;8.648;2023-02-12T06:33:41;98199.31;;;-0.32;99.36
54994;BME280;40891;47.242;8.648;2023-02-12T06:36:07;98195.44;;;-0.31;99.00
54994;BME280;40891;47.242;8.648;2023-02-12T06:38:33;98208.19;;;-0.35;99.46
54994;BME280;40891;47.242;8.648;2023-02-12T06:41:02;98205.81;;;-0.36;99.44
54994;BME280;40891;47.242;8.648;2023-02-12T06:43:28;98216.84;;;-0.33;99.03
54994;BME280;40891;47.242;8.648;2023-02-12T06:45:53;98214.91;;;-0.32;98.93
54994;BME280;40891;47.242;8.648;2023-02-12T06:48:18;98214.81;;;-0.36;98.50
54994;BME280;40891;47.242;8.648;2023-02-12T06:50:44;98210.91;;;-0.35;98.71
54994;BME280;40891;47.242;8.648;2023-02-12T06:53:09;98211.38;;;-0.33;98.80
54994;BME280;40891;47.242;8.648;2023-02-12T06:55:34;98211.97;;;-0.27;99.47
54994;BME280;40891;47.242;8.648;2023-02-12T06:58:00;98210.63;;;-0.21;99.07
54994;BME280;40891;47.242;8.648;2023-02-12T07:00:25;98215.56;;;-0.15;99.71
54994;BME280;40891;47.242;8.648;2023-02-12T07:02:54;98219.66;;;-0.09;99.43
54994;BME280;40891;47.242;8.648;2023-02-12T07:05:20;98221.06;;;-0.03;99.11
54994;BME280;40891;47.242;8.648;2023-02-12T07:07:45;98211.94;;;0.06;98.37
54994;BME280;40891;47.242;8.648;2023-02-12T07:10:11;98208.63;;;0.12;98.07
54994;BME280;40891;47.242;8.648;2023-02-12T07:12:36;98213.22;;;0.20;97.99
54994;BME280;40891;47.242;8.648;2023-02-12T07:15:01;98207.53;;;0.37;96.79
54994;BME280;40891;47.242;8.648;2023-02-12T07:17:28;98209.47;;;0.73;95.85
54994;BME280;40891;47.242;8.648;2023-02-12T07:19:54;98205.22;;;1.40;93.33
54994;BME280;40891;47.242;8.648;2023-02-12T07:22:20;98207.72;;;1.88;89.00
54994;BME280;40891;47.242;8.648;2023-02-12T07:24:46;98202.28;;;2.50;86.11
54994;BME280;40891;47.242;8.648;2023-02-12T07:27:11;98205.41;;;2.99;82.36
54994;BME280;40891;47.242;8.648;2023-02-12T07:29:37;98194.22;;;3.46;79.42
54994;BME280;40891;47.242;8.648;2023-02-12T07:32:02;98191.16;;;3.89;76.92
54994;BME280;40891;47.242;8.648;2023-02-12T07:34:27;98189.78;;;4.22;74.90
54994;BME280;40891;47.242;8.648;2023-02-12T07:36:53;98191.47;;;4.75;72.13
54994;BME280;40891;47.242;8.648;2023-02-12T07:39:18;98193.97;;;5.39;70.11
54994;BME280;40891;47.242;8.648;2023-02-12T07:41:43;98189.00;;;5.52;66.40
54994;BME280;40891;47.242;8.648;2023-02-12T07:44:11;98187.41;;;6.17;64.59
54994;BME280;40891;47.242;8.648;2023-02-12T07:46:39;98178.47;;;6.78;62.11
54994;BME280;40891;47.242;8.648;2023-02-12T07:49:06;98184.25;;;7.17;59.76
54994;BME280;40891;47.242;8.648;2023-02-12T07:51:33;98176.53;;;7.47;59.44
54994;BME280;40891;47.242;8.648;2023-02-12T07:53:59;98167.22;;;7.98;57.32
54994;BME280;40891;47.242;8.648;2023-02-12T07:56:27;98169.97;;;7.87;58.50
54994;BME280;40891;47.242;8.648;2023-02-12T07:58:58;98166.69;;;7.61;59.20
54994;BME280;40891;47.242;8.648;2023-02-12T08:01:27;98170.41;;;8.21;58.40
54994;BME280;40891;47.242;8.648;2023-02-12T08:03:56;98166.94;;;8.52;56.59
54994;BME280;40891;47.242;8.648;2023-02-12T08:06:24;98161.41;;;8.42;56.57
54994;BME280;40891;47.242;8.648;2023-02-12T08:08:52;98169.53;;;7.78;58.24
54994;BME280;40891;47.242;8.648;2023-02-12T08:11:18;98173.59;;;7.16;60.14
54994;BME280;40891;47.242;8.648;2023-02-12T08:13:44;98182.00;;;6.28;63.01
54994;BME280;40891;47.242;8.648;2023-02-12T08:16:21;98189.56;;;5.35;69.91
54994;BME280;40891;47.242;8.648;2023-02-12T08:18:47;98199.53;;;5.13;71.87
54994;BME280;40891;47.242;8.648;2023-02-12T08:21:15;98196.34;;;4.85;73.63
54994;BME280;40891;47.242;8.648;2023-02-12T08:23:41;98198.53;;;4.99;73.27
54994;BME280;40891;47.242;8.648;2023-02-12T08:26:19;98204.97;;;5.10;74.41
54994;BME280;40891;47.242;8.648;2023-02-12T08:28:49;98198.78;;;5.46;72.09
54994;BME280;40891;47.242;8.648;2023-02-12T08:31:35;98196.91;;;6.20;68.63
54994;BME280;40891;47.242;8.648;2023-02-12T08:34:01;98186.13;;;7.75;61.51
54994;BME280;40891;47.242;8.648;2023-02-12T08:36:36;98167.16;;;9.56;55.96
54994;BME280;40891;47.242;8.648;2023-02-12T08:39:04;98167.91;;;10.95;51.24
54994;BME280;40891;47.242;8.648;2023-02-12T08:41:30;98164.34;;;11.32;47.25
54994;BME280;40891;47.242;8.648;2023-02-12T08:43:58;98146.94;;;12.49;44.79
54994;BME280;40891;47.242;8.648;2023-02-12T08:46:26;98160.47;;;12.50;43.46
54994;BME280;40891;47.242;8.648;2023-02-12T08:48:57;98151.19;;;12.57;43.71
54994;BME280;40891;47.242;8.648;2023-02-12T08:51:24;98147.66;;;12.53;43.98
54994;BME280;40891;47.242;8.648;2023-02-12T08:53:54;98151.28;;;12.76;43.89
54994;BME280;40891;47.242;8.648;2023-02-12T08:56:20;98139.13;;;13.92;41.22
54994;BME280;40891;47.242;8.648;2023-02-12T08:58:46;98131.06;;;13.58;41.12
54994;BME280;40891;47.242;8.648;2023-02-12T09:01:15;98125.53;;;13.74;40.95
54994;BME280;40891;47.242;8.648;2023-02-12T09:03:41;98127.06;;;14.66;39.62
54994;BME280;40891;47.242;8.648;2023-02-12T09:06:08;98113.31;;;15.90;37.13
54994;BME280;40891;47.242;8.648;2023-02-12T09:08:34;98114.81;;;16.45;35.49
54994;BME280;40891;47.242;8.648;2023-02-12T09:11:04;98109.91;;;17.21;33.79
54994;BME280;40891;47.242;8.648;2023-02-12T09:13:30;98110.16;;;17.14;33.98
54994;BME280;40891;47.242;8.648;2023-02-12T09:15:55;98104.06;;;16.69;34.35
54994;BME280;40891;47.242;8.648;2023-02-12T09:18:20;98099.41;;;17.34;33.04
54994;BME280;40891;47.242;8.648;2023-02-12T09:20:46;98085.38;;;18.08;31.64
54994;BME280;40891;47.242;8.648;2023-02-12T09:23:12;98088.97;;;18.79;30.13
54994;BME280;40891;47.242;8.648;2023-02-12T09:25:40;98091.38;;;18.90;29.71
54994;BME280;40891;47.242;8.648;2023-02-12T09:28:06;98087.53;;;17.95;31.22
54994;BME280;40891;47.242;8.648;2023-02-12T09:30:32;98103.38;;;16.27;33.32
54994;BME280;40891;47.242;8.648;2023-02-12T09:32:57;98101.81;;;15.72;34.71
54994;BME280;40891;47.242;8.648;2023-02-12T09:35:23;98095.97;;;17.18;32.78
54994;BME280;40891;47.242;8.648;2023-02-12T09:37:48;98095.25;;;16.92;32.65
54994;BME280;40891;47.242;8.648;2023-02-12T09:40:20;98088.16;;;17.00;31.84
54994;BME280;40891;47.242;8.648;2023-02-12T09:45:41;98080.28;;;18.47;30.54
54994;BME280;40891;47.242;8.648;2023-02-12T09:50:59;98070.59;;;19.33;29.36
54994;BME280;40891;47.242;8.648;2023-02-12T09:53:27;98072.94;;;19.52;27.78
54994;BME280;40891;47.242;8.648;2023-02-12T09:55:53;98063.28;;;20.55;26.64
54994;BME280;40891;47.242;8.648;2023-02-12T09:58:29;98074.16;;;19.06;28.45
54994;BME280;40891;47.242;8.648;2023-02-12T10:00:55;98072.25;;;18.76;28.57
54994;BME280;40891;47.242;8.648;2023-02-12T10:03:21;98073.09;;;17.62;30.52
54994;BME280;40891;47.242;8.648;2023-02-12T10:05:50;98069.75;;;18.87;28.55
54994;BME280;40891;47.242;8.648;2023-02-12T10:08:35;98070.31;;;19.40;27.77
54994;BME280;40891;47.242;8.648;2023-02-12T10:11:31;98065.53;;;20.75;26.11
54994;BME280;40891;47.242;8.648;2023-02-12T10:14:19;98064.94;;;21.42;24.75
54994;BME280;40891;47.242;8.648;2023-02-12T10:25:25;98043.25;;;24.54;20.89
54994;BME280;40891;47.242;8.648;2023-02-12T10:27:54;98044.78;;;24.86;20.76
54994;BME280;40891;47.242;8.648;2023-02-12T10:30:24;98042.59;;;25.18;20.25
54994;BME280;40891;47.242;8.648;2023-02-12T10:32:55;98039.47;;;24.05;21.23
54994;BME280;40891;47.242;8.648;2023-02-12T10:35:23;98038.44;;;25.78;19.97
54994;BME280;40891;47.242;8.648;2023-02-12T10:38:16;98041.91;;;25.39;19.66
54994;BME280;40891;47.242;8.648;2023-02-12T10:40:43;98034.34;;;26.06;19.67
54994;BME280;40891;47.242;8.648;2023-02-12T10:43:11;98032.03;;;26.16;19.02
54994;BME280;40891;47.242;8.648;2023-02-12T10:45:38;98042.66;;;25.29;19.49
54994;BME280;40891;47.242;8.648;2023-02-12T10:48:20;98027.13;;;26.11;18.30
54994;BME280;40891;47.242;8.648;2023-02-12T10:53:39;98021.88;;;25.12;18.74
54994;BME280;40891;47.242;8.648;2023-02-12T10:58:57;98014.91;;;26.05;18.16
54994;BME280;40891;47.242;8.648;2023-02-12T11:01:45;98008.41;;;25.88;18.21
54994;BME280;40891;47.242;8.648;2023-02-12T11:04:25;98004.28;;;26.22;17.57
54994;BME280;40891;47.242;8.648;2023-02-12T11:07:07;98003.03;;;25.25;18.73
54994;BME280;40891;47.242;8.648;2023-02-12T11:09:42;97993.38;;;25.93;17.88
54994;BME280;40891;47.242;8.648;2023-02-12T11:14:48;98002.94;;;24.24;19.50
54994;BME280;40891;47.242;8.648;2023-02-12T11:17:23;97988.66;;;25.56;19.06
54994;BME280;40891;47.242;8.648;2023-02-12T11:20:07;97988.19;;;25.86;18.94
54994;BME280;40891;47.242;8.648;2023-02-12T11:22:34;97976.78;;;26.41;18.31
54994;BME280;40891;47.242;8.648;2023-02-12T11:25:13;97984.72;;;24.42;19.84
54994;BME280;40891;47.242;8.648;2023-02-12T11:27:40;97977.47;;;24.77;20.13
54994;BME280;40891;47.242;8.648;2023-02-12T11:32:35;97962.34;;;27.13;17.40
54994;BME280;40891;47.242;8.648;2023-02-12T11:35:16;97963.06;;;26.40;17.93
54994;BME280;40891;47.242;8.648;2023-02-12T11:37:48;97951.94;;;26.14;18.75
54994;BME280;40891;47.242;8.648;2023-02-12T11:40:22;97950.31;;;27.78;17.55
54994;BME280;40891;47.242;8.648;2023-02-12T11:42:51;97956.63;;;28.00;17.46
54994;BME280;40891;47.242;8.648;2023-02-12T11:45:20;97959.94;;;26.38;18.06
54994;BME280;40891;47.242;8.648;2023-02-12T11:47:46;97957.88;;;26.05;18.98
54994;BME280;40891;47.242;8.648;2023-02-12T11:50:27;97956.69;;;27.02;18.03
54994;BME280;40891;47.242;8.648;2023-02-12T11:52:57;97949.28;;;27.75;17.54
54994;BME280;40891;47.242;8.648;2023-02-12T11:55:26;97946.91;;;28.68;16.98
54994;BME280;40891;47.242;8.648;2023-02-12T11:58:22;97948.56;;;28.58;16.58
54994;BME280;40891;47.242;8.648;2023-02-12T12:01:04;97950.69;;;27.57;17.87
54994;BME280;40891;47.242;8.648;2023-02-12T12:03:48;97944.28;;;27.81;17.39
54994;BME280;40891;47.242;8.648;2023-02-12T12:06:33;97941.53;;;29.26;16.74
54994;BME280;40891;47.242;8.648;2023-02-12T12:09:14;97934.59;;;28.73;16.71
54994;BME280;40891;47.242;8.648;2023-02-12T12:14:24;97922.94;;;28.17;17.19
54994;BME280;40891;47.242;8.648;2023-02-12T12:17:13;97926.72;;;28.31;17.62
54994;BME280;40891;47.242;8.648;2023-02-12T12:20:11;97921.41;;;29.50;16.51
54994;BME280;40891;47.242;8.648;2023-02-12T12:22:54;97925.66;;;28.34;16.90
54994;BME280;40891;47.242;8.648;2023-02-12T12:25:25;97916.53;;;28.60;17.40
54994;BME280;40891;47.242;8.648;2023-02-12T12:30:52;97912.94;;;26.55;18.82
54994;BME280;40891;47.242;8.648;2023-02-12T12:33:37;97902.94;;;28.42;17.59
54994;BME280;40891;47.242;8.648;2023-02-12T12:44:49;97908.81;;;28.97;17.47
54994;BME280;40891;47.242;8.648;2023-02-12T12:47:43;97904.44;;;27.13;18.93
54994;BME280;40891;47.242;8.648;2023-02-12T12:52:45;97897.78;;;28.10;18.49
54994;BME280;40891;47.242;8.648;2023-02-12T12:58:19;97903.72;;;25.83;20.21
54994;BME280;40891;47.242;8.648;2023-02-12T13:01:05;97900.34;;;25.90;20.24
54994;BME280;40891;47.242;8.648;2023-02-12T13:14:30;97876.91;;;29.44;17.19
54994;BME280;40891;47.242;8.648;2023-02-12T13:17:04;97879.25;;;27.52;17.98
54994;BME280;40891;47.242;8.648;2023-02-12T13:22:37;97871.38;;;28.47;18.07
54994;BME280;40891;47.242;8.648;2023-02-12T13:27:41;97876.06;;;27.26;18.63
54994;BME280;40891;47.242;8.648;2023-02-12T13:32:49;97865.53;;;27.80;18.27
54994;BME280;40891;47.242;8.648;2023-02-12T13:35:18;97876.72;;;27.02;18.80
54994;BME280;40891;47.242;8.648;2023-02-12T13:37:48;97871.00;;;27.43;18.70
54994;BME280;40891;47.242;8.648;2023-02-12T13:40:17;97888.09;;;25.28;21.04
54994;BME280;40891;47.242;8.648;2023-02-12T13:42:52;97886.31;;;25.36;21.20
54994;BME280;40891;47.242;8.648;2023-02-12T13:56:56;97862.22;;;26.20;19.80
54994;BME280;40891;47.242;8.648;2023-02-12T14:01:58;97864.06;;;27.33;18.48
54994;BME280;40891;47.242;8.648;2023-02-12T14:04:30;97864.53;;;26.33;19.76
54994;BME280;40891;47.242;8.648;2023-02-12T14:09:31;97872.28;;;26.38;20.15
54994;BME280;40891;47.242;8.648;2023-02-12T14:11:58;97864.06;;;25.68;20.56
54994;BME280;40891;47.242;8.648;2023-02-12T14:16:51;97855.03;;;26.77;20.11
54994;BME280;40891;47.242;8.648;2023-02-12T14:19:41;97855.66;;;27.46;19.61
54994;BME280;40891;47.242;8.648;2023-02-12T14:24:51;97850.00;;;26.99;20.30
54994;BME280;40891;47.242;8.648;2023-02-12T14:27:21;97854.16;;;27.34;19.00
54994;BME280;40891;47.242;8.648;2023-02-12T14:35:40;97854.66;;;27.43;19.90
54994;BME280;40891;47.242;8.648;2023-02-12T14:40:39;97855.84;;;27.18;19.41
54994;BME280;40891;47.242;8.648;2023-02-12T14:49:00;97860.59;;;26.42;20.28
54994;BME280;40891;47.242;8.648;2023-02-12T14:51:42;97854.53;;;26.67;19.87
54994;BME280;40891;47.242;8.648;2023-02-12T14:54:20;97854.00;;;26.69;19.95
54994;BME280;40891;47.242;8.648;2023-02-12T14:56:51;97857.75;;;26.36;19.81
54994;BME280;40891;47.242;8.648;2023-02-12T14:59:22;97868.47;;;25.52;21.38
54994;BME280;40891;47.242;8.648;2023-02-12T15:01:49;97861.72;;;25.89;21.12
54994;BME280;40891;47.242;8.648;2023-02-12T15:04:23;97869.44;;;25.16;21.19
54994;BME280;40891;47.242;8.648;2023-02-12T15:06:54;97861.75;;;25.66;21.13
54994;BME280;40891;47.242;8.648;2023-02-12T15:09:31;97866.41;;;25.70;21.27
54994;BME280;40891;47.242;8.648;2023-02-12T15:12:26;97872.25;;;23.67;23.74
54994;BME280;40891;47.242;8.648;2023-02-12T15:17:53;97892.66;;;21.93;25.70
54994;BME280;40891;47.242;8.648;2023-02-12T15:20:24;97897.34;;;19.99;28.70
54994;BME280;40891;47.242;8.648;2023-02-12T15:22:55;97910.06;;;18.08;31.67
54994;BME280;40891;47.242;8.648;2023-02-12T15:25:26;97903.84;;;16.34;35.26
54994;BME280;40891;47.242;8.648;2023-02-12T15:28:05;97915.75;;;14.99;38.04
54994;BME280;40891;47.242;8.648;2023-02-12T15:30:36;97918.59;;;14.10;40.58
54994;BME280;40891;47.242;8.648;2023-02-12T15:33:04;97915.31;;;14.27;41.03
54994;BME280;40891;47.242;8.648;2023-02-12T15:35:32;97920.50;;;13.64;41.94
54994;BME280;40891;47.242;8.648;2023-02-12T15:37:58;97920.84;;;13.15;43.72
54994;BME280;40891;47.242;8.648;2023-02-12T15:40:25;97921.63;;;12.76;44.94